Time;durP1;ratioP1;P1;durP2;ratioP2;P2;SDS_P1;SDS_P2;PMS_P1;PMS_P2;Temp;Humidity;BMP_temperature;BMP_pressure;BME280_temperature;BME280_humidity;BME280_pressure;Samples;Min_cycle;Max_cycle;Signal;HPM_P1;HPM_P2
2021/12/24 00:00:46;;;;;;;;;31.25;25.50;;;;;10.75;73.18;100798.06;5022548;28;45332;-58
2021/12/24 00:03:13;;;;;;;;;36.25;29.00;;;;;10.76;73.34;100796.28;5021304;28;45413;-59
2021/12/24 00:05:39;;;;;;;;;32.50;28.75;;;;;10.77;73.45;100796.19;5022603;28;45543;-58
2021/12/24 00:08:06;;;;;;;;;37.75;27.50;;;;;10.76;73.13;100797.13;5022517;28;46163;-58
2021/12/24 00:10:32;;;;;;;;;35.00;32.00;;;;;10.77;73.33;100797.97;5022669;28;45217;-58
2021/12/24 00:13:06;;;;;;;;;33.00;27.75;;;;;10.75;73.51;100811.22;5022629;28;45450;-58
2021/12/24 00:18:06;;;;;;;;;30.50;28.75;;;;;10.75;73.25;100805.97;5022403;28;45328;-58
2021/12/24 00:36:56;;;;;;;;;26.75;24.25;;;;;10.78;73.58;100784.69;5022107;28;45326;-58
2021/12/24 00:39:21;;;;;;;;;32.75;27.00;;;;;10.79;74.10;100770.56;5022192;28;45468;-59
2021/12/24 00:41:47;;;;;;;;;38.00;31.50;;;;;10.77;73.83;100774.25;5022144;28;45244;-58
2021/12/24 00:44:12;;;;;;;;;31.75;25.50;;;;;10.77;74.16;100772.47;5022297;28;45213;-59
2021/12/24 00:46:38;;;;;;;;;41.25;29.75;;;;;10.79;74.33;100769.72;5022189;28;45486;-58
2021/12/24 00:49:04;;;;;;;;;34.75;30.00;;;;;10.78;74.08;100760.97;5021841;28;45239;-58
2021/12/24 00:51:43;;;;;;;;;35.50;26.25;;;;;10.78;74.11;100760.97;5021642;28;45268;-58
2021/12/24 00:56:54;;;;;;;;;32.25;26.25;;;;;10.83;74.23;100755.44;5019284;28;45313;-59
2021/12/24 00:59:20;;;;;;;;;33.25;29.50;;;;;10.84;74.11;100751.88;5021535;28;45316;-59
2021/12/24 01:01:46;;;;;;;;;30.50;24.25;;;;;10.83;74.43;100740.47;5021841;28;45337;-58
2021/12/24 01:04:12;;;;;;;;;35.75;27.50;;;;;10.86;74.50;100736.81;5021832;28;45268;-58
2021/12/24 01:06:37;;;;;;;;;33.75;25.75;;;;;10.87;74.38;100727.94;5021752;28;45320;-58
2021/12/24 01:09:04;;;;;;;;;42.00;31.50;;;;;10.88;74.40;100716.47;5021470;28;46062;-58
2021/12/24 01:11:30;;;;;;;;;34.50;30.25;;;;;10.88;74.27;100712.03;5021903;28;45233;-58
2021/12/24 01:13:58;;;;;;;;;31.50;26.00;;;;;10.89;74.25;100712.88;5021775;28;45250;-58
2021/12/24 01:16:34;;;;;;;;;35.50;31.50;;;;;10.89;73.99;100710.25;5021820;28;45351;-59
2021/12/24 01:19:12;;;;;;;;;30.75;25.50;;;;;10.88;74.00;100704.13;5021206;28;46213;-59
2021/12/24 01:24:14;;;;;;;;;31.00;25.00;;;;;10.90;73.84;100698.75;5021636;28;45240;-58
2021/12/24 01:26:54;;;;;;;;;29.50;27.75;;;;;10.88;74.12;100701.50;5021641;28;45253;-59
2021/12/24 01:29:52;;;;;;;;;34.00;31.25;;;;;10.90;74.07;100701.41;5021288;28;45565;-59
2021/12/24 01:37:56;;;;;;;;;33.00;29.25;;;;;10.91;73.81;100708.41;5021691;28;45297;-58
2021/12/24 01:40:26;;;;;;;;;40.50;30.25;;;;;10.92;74.41;100711.88;5021166;28;45292;-58
2021/12/24 01:42:54;;;;;;;;;38.50;29.00;;;;;10.93;73.90;100706.50;5021131;28;45379;-58
2021/12/24 01:45:30;;;;;;;;;34.75;27.75;;;;;10.94;73.90;100715.25;5021069;28;45321;-59
2021/12/24 01:47:58;;;;;;;;;38.75;30.00;;;;;10.94;74.17;100708.19;5021204;28;45266;-58
2021/12/24 01:50:27;;;;;;;;;31.00;23.50;;;;;10.95;74.25;100719.59;5020860;28;45391;-59
2021/12/24 01:52:54;;;;;;;;;33.50;26.25;;;;;10.96;74.08;100721.28;5020974;28;45379;-59
2021/12/24 01:55:20;;;;;;;;;29.00;24.50;;;;;10.97;74.18;100715.91;5021075;28;45326;-58
2021/12/24 01:57:47;;;;;;;;;31.75;24.00;;;;;10.98;74.04;100720.25;5021293;28;45316;-58
2021/12/24 02:00:20;;;;;;;;;32.00;25.00;;;;;10.99;74.08;100713.19;5020869;28;46008;-59
2021/12/24 02:02:46;;;;;;;;;32.00;28.25;;;;;11.00;74.39;100720.16;5020746;28;45370;-58
2021/12/24 02:05:11;;;;;;;;;27.75;22.25;;;;;10.99;74.20;100706.13;5020855;28;45370;-59
2021/12/24 02:07:38;;;;;;;;;31.00;21.75;;;;;11.01;74.05;100706.03;5020957;28;45240;-58
2021/12/24 02:10:06;;;;;;;;;32.50;27.25;;;;;11.01;73.65;100711.31;5020919;28;45315;-58
2021/12/24 02:12:34;;;;;;;;;32.75;24.25;;;;;11.01;73.92;100708.66;5020931;28;45669;-59
2021/12/24 02:15:01;;;;;;;;;24.00;22.50;;;;;11.02;74.05;100705.94;5020919;28;45391;-59
2021/12/24 02:17:55;;;;;;;;;17.50;14.25;;;;;11.03;74.14;100699.72;5020856;28;45500;-58
2021/12/24 02:28:39;;;;;;;;;33.25;27.00;;;;;11.02;73.51;100687.47;5020897;28;45309;-58
2021/12/24 02:31:14;;;;;;;;;28.00;25.00;;;;;11.01;73.21;100691.06;5020569;28;45384;-58
2021/12/24 02:33:40;;;;;;;;;32.50;28.00;;;;;11.00;73.07;100688.53;5020521;28;45272;-58
2021/12/24 02:36:06;;;;;;;;;30.50;26.00;;;;;11.00;73.38;100694.66;5020521;28;45238;-58
2021/12/24 02:38:33;;;;;;;;;29.25;26.00;;;;;10.99;73.34;100698.22;5020498;28;45330;-58
2021/12/24 02:40:59;;;;;;;;;28.50;25.00;;;;;10.98;73.66;100693.91;5020491;28;46166;-59
2021/12/24 02:43:25;;;;;;;;;35.25;32.00;;;;;10.99;73.19;100684.19;5020330;28;45423;-58
2021/12/24 02:45:56;;;;;;;;;34.25;29.25;;;;;10.97;73.41;100686.91;5020701;28;45498;-58
2021/12/24 02:56:16;;;;;;;;;34.50;24.00;;;;;10.93;74.08;100663.50;5020212;28;45224;-58
2021/12/24 02:58:49;;;;;;;;;27.25;26.00;;;;;10.93;74.62;100668.75;5023025;28;45336;-58
2021/12/24 03:01:18;;;;;;;;;28.25;23.25;;;;;10.90;74.12;100667.16;5023623;28;45877;-58
2021/12/24 03:03:48;;;;;;;;;22.25;18.75;;;;;10.90;74.18;100669.78;5023587;28;45383;-59
2021/12/24 03:06:23;;;;;;;;;31.00;26.50;;;;;10.92;74.02;100680.25;5023526;28;45214;-59
2021/12/24 03:08:49;;;;;;;;;27.75;23.25;;;;;10.93;73.85;100677.50;5023788;28;45496;-58
2021/12/24 03:11:14;;;;;;;;;30.25;27.75;;;;;10.95;73.97;100669.50;5023485;28;45188;-59
2021/12/24 03:13:41;;;;;;;;;38.25;30.00;;;;;10.94;73.91;100675.72;5023482;28;45290;-59
2021/12/24 03:16:07;;;;;;;;;32.75;27.50;;;;;10.94;73.97;100673.94;5023591;28;45501;-58
2021/12/24 03:18:38;;;;;;;;;28.75;27.00;;;;;10.96;73.75;100668.56;5023459;28;45469;-58
2021/12/24 03:21:10;;;;;;;;;40.50;25.75;;;;;10.95;73.58;100665.06;5022912;28;46049;-58
2021/12/24 03:23:42;;;;;;;;;31.50;25.50;;;;;10.97;73.50;100671.09;5023272;28;46192;-58
2021/12/24 03:26:13;;;;;;;;;31.25;26.00;;;;;10.96;73.52;100664.13;5023369;28;45348;-58
2021/12/24 03:28:39;;;;;;;;;29.25;25.75;;;;;10.96;73.60;100666.78;5022089;28;45285;-58
2021/12/24 03:31:06;;;;;;;;;34.50;27.25;;;;;10.97;73.61;100660.56;5023211;28;45216;-59
2021/12/24 03:33:34;;;;;;;;;34.50;28.00;;;;;10.98;73.52;100657.00;5023076;28;45261;-58
2021/12/24 03:36:04;;;;;;;;;24.25;20.25;;;;;10.97;73.50;100651.81;5023231;28;45319;-59
2021/12/24 03:38:30;;;;;;;;;31.25;25.25;;;;;10.97;73.46;100652.66;5023284;28;45467;-58
2021/12/24 03:40:56;;;;;;;;;26.50;25.00;;;;;10.98;73.56;100646.47;5023123;28;45341;-58
2021/12/24 03:43:22;;;;;;;;;31.25;25.25;;;;;10.97;73.26;100650.00;5023115;28;45500;-58
2021/12/24 03:48:25;;;;;;;;;27.75;21.75;;;;;10.99;73.70;100628.84;5023078;28;45162;-59
2021/12/24 03:51:06;;;;;;;;;31.50;27.75;;;;;10.93;73.31;100618.69;5022597;28;45483;-58
2021/12/24 03:56:15;;;;;;;;;33.00;27.00;;;;;11.00;73.40;100626.13;5022934;28;45248;-58
2021/12/24 03:58:42;;;;;;;;;24.00;22.50;;;;;11.02;73.72;100624.22;5023032;28;45250;-58
2021/12/24 04:01:09;;;;;;;;;32.25;26.25;;;;;11.02;73.82;100618.94;5022567;28;46148;-58
2021/12/24 04:03:34;;;;;;;;;31.00;26.50;;;;;11.03;73.67;100618.00;5022782;28;45394;-59
2021/12/24 04:06:00;;;;;;;;;32.75;24.75;;;;;11.01;73.86;100614.63;5022649;28;45309;-58
2021/12/24 04:08:25;;;;;;;;;34.50;26.25;;;;;11.03;73.97;100622.44;5021998;28;45308;-58
2021/12/24 04:10:51;;;;;;;;;19.25;17.75;;;;;11.03;73.58;100603.97;5022318;28;45400;-58
2021/12/24 04:13:17;;;;;;;;;22.00;18.50;;;;;11.03;73.68;100599.56;5022704;28;45299;-58
2021/12/24 04:15:43;;;;;;;;;30.25;25.50;;;;;11.02;73.61;100591.75;5022786;28;45287;-58
2021/12/24 04:18:36;;;;;;;;;34.00;27.00;;;;;11.00;73.64;100598.91;5022650;28;45431;-58
2021/12/24 04:26:32;;;;;;;;;40.75;27.75;;;;;10.94;73.87;100576.41;5022599;28;45253;-58
2021/12/24 04:28:58;;;;;;;;;33.00;29.25;;;;;10.94;73.59;100584.31;5022403;28;45174;-58
2021/12/24 04:31:31;;;;;;;;;33.50;28.25;;;;;10.95;73.42;100590.44;5021069;28;46362;-58
2021/12/24 04:34:00;;;;;;;;;39.25;29.50;;;;;10.95;73.62;100574.63;5022120;28;45383;-59
2021/12/24 05:03:09;;;;;;;;;43.25;26.25;;;;;10.99;73.52;100562.97;5021453;28;45667;-58
2021/12/24 05:05:44;;;;;;;;;35.50;32.75;;;;;11.00;73.67;100554.94;5021780;28;45404;-58
2021/12/24 05:08:23;;;;;;;;;28.75;27.75;;;;;11.02;73.46;100560.13;5021896;28;45347;-58
2021/12/24 05:10:51;;;;;;;;;37.00;26.75;;;;;11.01;73.97;100561.06;5021658;28;45229;-57
2021/12/24 05:13:18;;;;;;;;;29.00;25.50;;;;;11.01;73.76;100558.44;5021716;28;45610;-58
2021/12/24 05:15:48;;;;;;;;;26.75;21.75;;;;;11.01;73.94;100567.19;5021554;28;45338;-58
2021/12/24 05:23:40;;;;;;;;;30.00;27.25;;;;;11.00;74.06;100549.69;5021484;28;45562;-58
2021/12/24 05:26:06;;;;;;;;;40.50;28.50;;;;;11.01;73.83;100558.44;5021579;28;45246;-58
2021/12/24 05:28:31;;;;;;;;;33.75;25.50;;;;;11.02;73.88;100560.13;5021480;28;45353;-58
2021/12/24 05:30:57;;;;;;;;;29.25;25.75;;;;;11.02;73.95;100552.22;5021649;28;45261;-58
2021/12/24 05:33:22;;;;;;;;;34.25;25.50;;;;;10.99;73.92;100542.72;5021187;28;45356;-58
2021/12/24 05:35:48;;;;;;;;;27.50;21.50;;;;;11.04;73.87;100547.69;5021120;28;45317;-58
2021/12/24 05:38:16;;;;;;;;;38.00;29.75;;;;;11.02;74.06;100541.66;5021378;28;45217;-58
2021/12/24 05:40:43;;;;;;;;;25.75;23.25;;;;;11.01;73.95;100540.81;5021560;28;45254;-58
2021/12/24 05:43:10;;;;;;;;;28.00;25.50;;;;;11.03;74.00;100538.94;5021007;28;46435;-58
2021/12/24 05:45:36;;;;;;;;;32.00;25.00;;;;;11.03;74.00;100533.66;5021267;28;45257;-58
2021/12/24 05:48:01;;;;;;;;;28.75;22.75;;;;;11.03;74.21;100536.28;5021015;28;45999;-58
2021/12/24 05:50:27;;;;;;;;;31.50;30.75;;;;;11.02;74.13;100537.25;5020983;28;45178;-57
2021/12/24 05:52:53;;;;;;;;;31.75;21.75;;;;;11.01;74.30;100540.81;5020843;28;45284;-58
2021/12/24 05:55:19;;;;;;;;;28.50;23.75;;;;;11.01;73.97;100545.25;5021092;28;45248;-57
2021/12/24 05:57:44;;;;;;;;;26.00;24.75;;;;;11.00;74.15;100540.94;5021106;28;45227;-57
2021/12/24 06:00:12;;;;;;;;;42.00;28.25;;;;;11.01;74.56;100553.16;5021190;28;45463;-58
2021/12/24 06:02:37;;;;;;;;;34.00;26.75;;;;;11.00;74.69;100562.00;5020400;28;45501;-58
2021/12/24 06:05:03;;;;;;;;;30.00;27.50;;;;;10.99;74.71;100560.31;5020709;28;45471;-58
2021/12/24 06:07:29;;;;;;;;;23.25;22.25;;;;;10.96;74.63;100560.50;5021050;28;45334;-58
2021/12/24 06:09:54;;;;;;;;;27.50;22.25;;;;;10.95;75.17;100553.53;5021228;28;45590;-58
2021/12/24 06:12:20;;;;;;;;;32.75;25.25;;;;;10.94;75.02;100559.75;5020689;28;45292;-58
2021/12/24 06:14:52;;;;;;;;;31.25;25.75;;;;;10.93;75.01;100561.56;5020982;28;45237;-58
2021/12/24 06:17:18;;;;;;;;;26.00;25.50;;;;;10.94;75.17;100565.03;5020772;28;45514;-58
2021/12/24 06:19:44;;;;;;;;;23.50;22.50;;;;;10.92;75.18;100566.94;5021081;28;45340;-58
2021/12/24 06:22:10;;;;;;;;;26.50;25.00;;;;;10.93;75.37;100560.72;5020056;28;46000;-57
2021/12/24 06:24:36;;;;;;;;;32.00;27.00;;;;;10.93;75.50;100566.81;5020519;28;45391;-57
2021/12/24 06:27:02;;;;;;;;;35.50;29.50;;;;;10.92;75.63;100554.59;5020767;28;45325;-57
2021/12/24 06:29:27;;;;;;;;;23.25;21.50;;;;;10.93;75.75;100558.91;5020993;28;45216;-58
2021/12/24 06:31:53;;;;;;;;;33.00;25.75;;;;;10.92;75.78;100559.88;5020857;28;45283;-57
2021/12/24 06:34:19;;;;;;;;;35.50;23.50;;;;;10.92;75.82;100551.13;5024323;28;45292;-58
2021/12/24 06:36:48;;;;;;;;;27.50;22.75;;;;;10.90;76.00;100546.78;5023944;28;45337;-58
2021/12/24 06:39:15;;;;;;;;;23.75;22.25;;;;;10.87;76.59;100536.44;5024300;28;45297;-58
2021/12/24 06:41:42;;;;;;;;;24.50;22.50;;;;;10.88;76.63;100540.75;5023890;28;45323;-58
2021/12/24 06:44:10;;;;;;;;;26.75;22.00;;;;;10.90;76.43;100540.66;5024195;28;45311;-58
2021/12/24 06:46:37;;;;;;;;;25.50;19.00;;;;;10.88;76.75;100540.75;5024248;28;45229;-58
2021/12/24 06:49:03;;;;;;;;;25.25;22.25;;;;;10.88;76.53;100540.75;5023955;28;45753;-58
2021/12/24 06:51:29;;;;;;;;;26.25;22.75;;;;;10.88;76.97;100537.28;5023526;28;45335;-58
2021/12/24 06:53:55;;;;;;;;;21.25;19.00;;;;;10.90;76.63;100541.53;5023967;28;45265;-58
2021/12/24 06:56:21;;;;;;;;;24.75;21.75;;;;;10.93;77.56;100540.47;5023967;28;45529;-58
2021/12/24 06:58:46;;;;;;;;;22.00;20.00;;;;;10.95;77.25;100535.09;5023930;28;45329;-58
2021/12/24 07:01:14;;;;;;;;;17.00;14.50;;;;;10.95;77.00;100537.72;5023654;28;46092;-58
2021/12/24 07:03:40;;;;;;;;;21.25;20.25;;;;;10.96;77.04;100539.41;5023716;28;45249;-58
2021/12/24 07:06:06;;;;;;;;;23.75;18.50;;;;;10.97;77.26;100538.47;5023496;28;45447;-56
2021/12/24 07:08:32;;;;;;;;;19.50;14.00;;;;;10.97;77.39;100543.75;5023950;28;45332;-58
2021/12/24 07:10:58;;;;;;;;;25.50;20.75;;;;;10.95;77.13;100543.84;5023331;28;46140;-57
2021/12/24 07:13:25;;;;;;;;;25.00;19.75;;;;;10.95;77.06;100541.22;5023879;28;45407;-58
2021/12/24 07:15:50;;;;;;;;;21.25;20.00;;;;;10.95;77.66;100548.28;5023570;28;45481;-58
2021/12/24 07:18:16;;;;;;;;;18.25;17.25;;;;;10.94;77.24;100533.41;5023695;28;45361;-57
2021/12/24 07:20:41;;;;;;;;;20.50;15.00;;;;;10.95;77.48;100535.09;5023135;28;45297;-57
2021/12/24 07:23:07;;;;;;;;;25.75;15.25;;;;;10.95;77.46;100532.47;5023316;28;45242;-58
2021/12/24 07:25:33;;;;;;;;;19.25;15.00;;;;;10.95;77.58;100537.72;5023499;28;45293;-57
2021/12/24 07:28:00;;;;;;;;;22.50;18.50;;;;;10.96;77.45;100531.50;5023609;28;45376;-58
2021/12/24 07:30:27;;;;;;;;;16.75;14.50;;;;;10.97;77.65;100534.03;5038295;28;46066;-58
2021/12/24 07:32:52;;;;;;;;;15.75;15.75;;;;;10.97;77.77;100522.66;5023331;28;45436;-55
2021/12/24 07:35:18;;;;;;;;;12.25;10.00;;;;;10.97;77.68;100531.41;5023026;28;45483;-56
2021/12/24 07:37:44;;;;;;;;;17.25;14.75;;;;;10.97;77.67;100534.03;5023313;28;45322;-53
2021/12/24 07:40:14;;;;;;;;;14.50;13.25;;;;;10.96;77.72;100535.00;5023059;28;45416;-55
2021/12/24 07:42:40;;;;;;;;;23.00;15.50;;;;;10.95;77.66;100538.56;5022874;28;45286;-57
2021/12/24 07:45:08;;;;;;;;;15.00;13.00;;;;;10.97;77.55;100535.84;5023040;28;45249;-56
2021/12/24 07:47:38;;;;;;;;;19.75;15.75;;;;;10.98;77.51;100538.41;5023063;28;45886;-57
2021/12/24 07:53:10;;;;;;;;;17.00;14.00;;;;;11.00;77.98;100535.66;5000798;28;45325;-57
2021/12/24 07:55:36;;;;;;;;;16.50;15.00;;;;;11.01;77.81;100532.06;5018833;28;45233;-57
2021/12/24 07:58:02;;;;;;;;;21.00;19.00;;;;;11.03;77.68;100530.19;5019650;28;45353;-57
2021/12/24 08:00:28;;;;;;;;;18.25;16.25;;;;;11.03;78.08;100535.44;5018086;28;45320;-57
2021/12/24 08:02:55;;;;;;;;;18.00;14.25;;;;;11.04;77.78;100535.34;5022509;28;45373;-56
2021/12/24 08:05:23;;;;;;;;;14.50;9.00;;;;;11.07;77.90;100536.97;5022733;28;45437;-56
2021/12/24 08:07:50;;;;;;;;;18.50;17.50;;;;;11.07;78.04;100524.63;5022747;28;45221;-57
2021/12/24 08:10:16;;;;;;;;;21.50;16.00;;;;;11.09;77.79;100511.34;5022852;28;46106;-57
2021/12/24 08:12:42;;;;;;;;;16.25;13.25;;;;;11.07;77.98;100505.31;5022511;28;45427;-57
2021/12/24 08:15:08;;;;;;;;;17.25;14.75;;;;;11.07;77.92;100508.81;5022784;28;45398;-57
2021/12/24 08:17:34;;;;;;;;;19.00;15.00;;;;;11.07;78.08;100515.88;5022500;28;45623;-57
2021/12/24 08:20:00;;;;;;;;;19.00;15.25;;;;;11.09;78.03;100511.34;5022511;28;45257;-57
2021/12/24 08:22:26;;;;;;;;;18.00;12.75;;;;;11.11;77.60;100506.81;5022306;28;45320;-57
2021/12/24 08:24:52;;;;;;;;;16.00;12.50;;;;;11.11;77.79;100512.06;5022366;28;45279;-56
2021/12/24 08:27:18;;;;;;;;;18.25;14.00;;;;;11.13;78.25;100510.19;5022671;28;45245;-58
2021/12/24 08:29:44;;;;;;;;;15.25;13.50;;;;;11.12;77.76;100511.97;5022381;28;45343;-56
2021/12/24 08:32:10;;;;;;;;;12.00;10.25;;;;;11.12;77.85;100511.13;5022211;28;45155;-56
2021/12/24 08:34:35;;;;;;;;;16.00;11.25;;;;;11.13;77.92;100524.19;5022332;28;45317;-55
2021/12/24 08:37:01;;;;;;;;;11.75;9.00;;;;;11.13;77.99;100507.53;5022141;28;45427;-56
2021/12/24 08:39:27;;;;;;;;;11.75;11.75;;;;;11.13;77.99;100505.75;5022354;28;45602;-57
2021/12/24 08:41:54;;;;;;;;;11.00;11.00;;;;;11.14;77.89;100515.38;5022089;28;45316;-56
2021/12/24 08:44:26;;;;;;;;;9.75;9.75;;;;;11.17;78.26;100507.25;5022422;28;45241;-55
2021/12/24 08:46:51;;;;;;;;;14.00;12.00;;;;;11.21;78.13;100499.97;5022166;28;45229;-57
2021/12/24 08:49:20;;;;;;;;;9.75;9.75;;;;;11.26;78.17;100503.16;5021899;28;46133;-56
2021/12/24 08:51:47;;;;;;;;;13.00;11.50;;;;;11.29;77.96;100508.22;5021519;28;45259;-56
2021/12/24 08:54:12;;;;;;;;;13.50;11.00;;;;;11.33;77.67;100503.63;5021693;28;45335;-57
2021/12/24 08:56:38;;;;;;;;;12.75;8.25;;;;;11.36;77.61;100496.31;5021461;28;45447;-56
2021/12/24 08:59:04;;;;;;;;;9.50;9.50;;;;;11.40;77.84;100504.91;5021377;28;45420;-56
2021/12/24 09:01:30;;;;;;;;;11.75;10.00;;;;;11.42;77.96;100501.19;5021638;28;45243;-57
2021/12/24 09:03:55;;;;;;;;;13.75;8.50;;;;;11.45;77.55;100502.78;5021810;28;45576;-55
2021/12/24 09:06:21;;;;;;;;;15.25;9.00;;;;;11.49;77.48;100499.00;5021701;28;45493;-57
2021/12/24 09:08:46;;;;;;;;;15.25;9.75;;;;;11.53;77.35;100505.75;5021375;28;46271;-57
2021/12/24 09:11:11;;;;;;;;;13.50;10.00;;;;;11.54;76.83;100511.91;5021308;28;45220;-56
2021/12/24 09:13:38;;;;;;;;;11.50;9.75;;;;;11.52;77.50;100511.97;5022014;28;45206;-57
2021/12/24 09:16:04;;;;;;;;;16.00;11.25;;;;;11.52;77.50;100504.06;5021688;28;45267;-56
2021/12/24 09:18:29;;;;;;;;;12.25;12.25;;;;;11.54;77.45;100509.25;5021301;28;45474;-56
2021/12/24 09:20:59;;;;;;;;;17.50;13.50;;;;;11.58;77.60;100508.94;5021144;28;45271;-56
2021/12/24 09:23:25;;;;;;;;;9.00;9.00;;;;;11.60;77.38;100508.81;5021615;28;45243;-56
2021/12/24 09:25:50;;;;;;;;;10.00;8.25;;;;;11.61;77.45;100507.88;5021525;28;45285;-55
2021/12/24 09:28:16;;;;;;;;;13.25;13.25;;;;;11.64;77.25;100505.06;5021292;28;45296;-56
2021/12/24 09:30:41;;;;;;;;;16.50;13.50;;;;;11.67;77.33;100505.69;5021302;28;45241;-55
2021/12/24 09:33:07;;;;;;;;;13.75;13.50;;;;;11.70;77.34;100502.00;5021383;28;45245;-56
2021/12/24 09:35:33;;;;;;;;;16.25;14.00;;;;;11.70;77.06;100510.75;5021107;28;45334;-57
2021/12/24 09:37:59;;;;;;;;;11.50;11.50;;;;;11.72;77.14;100506.22;5021309;28;46046;-57
2021/12/24 09:40:25;;;;;;;;;11.00;11.00;;;;;11.74;77.34;100506.13;5021195;28;45420;-56
2021/12/24 09:42:52;;;;;;;;;15.00;12.00;;;;;11.78;77.15;100504.97;5021333;28;45318;-56
2021/12/24 09:45:18;;;;;;;;;13.00;13.00;;;;;11.79;77.05;100509.28;5021400;28;45425;-56
2021/12/24 09:47:44;;;;;;;;;65.00;53.00;;;;;11.79;77.12;100498.75;5021101;28;45314;-57
2021/12/24 09:50:14;;;;;;;;;14.50;14.00;;;;;11.80;77.05;100496.94;5020918;28;45486;-57
2021/12/24 09:52:41;;;;;;;;;17.00;13.00;;;;;11.82;76.84;100493.28;5021249;28;46541;-56
2021/12/24 09:55:22;;;;;;;;;18.00;13.50;;;;;11.88;76.76;100484.09;5021153;28;45328;-57
2021/12/24 09:57:49;;;;;;;;;14.50;13.25;;;;;11.92;77.03;100478.47;5020778;28;45350;-57
2021/12/24 10:00:18;;;;;;;;;11.00;10.25;;;;;11.96;76.87;100482.63;5020985;28;45316;-56
2021/12/24 10:02:48;;;;;;;;;14.00;12.00;;;;;11.94;76.53;100487.16;5020662;28;45242;-57
2021/12/24 10:05:33;;;;;;;;;15.25;12.50;;;;;11.94;76.82;100486.31;5020896;28;45389;-56
2021/12/24 10:08:20;;;;;;;;;21.00;16.00;;;;;11.96;76.69;100490.53;5020792;28;45312;-56
2021/12/24 10:10:49;;;;;;;;;13.25;12.50;;;;;11.97;76.66;100489.59;5020744;28;45550;-56
2021/12/24 10:13:43;;;;;;;;;9.75;9.25;;;;;12.00;76.70;100485.88;5021070;28;45246;-57
2021/12/24 10:16:18;;;;;;;;;14.50;11.00;;;;;12.09;76.40;100476.50;5008048;28;45659;-56
2021/12/24 10:18:49;;;;;;;;;16.25;14.25;;;;;12.18;76.45;100474.06;5020555;28;46802;-57
2021/12/24 10:21:24;;;;;;;;;11.00;11.00;;;;;12.21;76.22;100479.09;5020499;28;45322;-57
2021/12/24 10:23:54;;;;;;;;;16.00;13.50;;;;;12.22;76.26;100470.22;5020876;28;45317;-57
2021/12/24 10:26:29;;;;;;;;;16.25;15.00;;;;;12.22;76.01;100474.66;5020907;28;45492;-56
2021/12/24 10:29:09;;;;;;;;;10.50;10.25;;;;;12.19;76.26;100473.09;5020444;28;46300;-57
2021/12/24 10:31:45;;;;;;;;;15.50;11.75;;;;;12.17;76.08;100472.38;5020742;28;45332;-57
2021/12/24 10:34:21;;;;;;;;;15.50;10.50;;;;;12.18;76.26;100457.38;5036178;28;45363;-57
2021/12/24 10:36:52;;;;;;;;;10.50;8.25;;;;;12.19;75.93;100459.06;5020437;28;45567;-57
2021/12/24 10:39:19;;;;;;;;;16.00;11.75;;;;;12.12;76.01;100456.00;5020520;28;45397;-56
2021/12/24 10:41:47;;;;;;;;;15.50;10.75;;;;;12.11;75.94;100449.03;5020356;28;45475;-57
2021/12/24 10:44:24;;;;;;;;;12.25;12.25;;;;;12.13;76.26;100448.91;5020640;28;45296;-57
2021/12/24 10:47:09;;;;;;;;;15.50;11.50;;;;;12.15;76.09;100445.19;5020463;28;45178;-56
2021/12/24 10:54:51;;;;;;;;;16.75;11.75;;;;;12.40;76.05;100440.81;5020411;28;45522;-56
2021/12/24 10:57:20;;;;;;;;;16.00;14.00;;;;;12.46;75.92;100441.22;5012492;28;45275;-57
2021/12/24 10:59:50;;;;;;;;;15.00;12.00;;;;;12.52;76.24;100437.31;5019987;28;45444;-57
2021/12/24 11:02:17;;;;;;;;;18.25;13.25;;;;;12.56;75.69;100444.91;5019840;28;45383;-56
2021/12/24 11:04:42;;;;;;;;;31.75;28.50;;;;;12.60;75.52;100442.03;5015221;28;45420;-57
2021/12/24 11:07:29;;;;;;;;;13.25;12.75;;;;;12.63;75.28;100434.72;5012182;28;45473;-57
2021/12/24 11:10:11;;;;;;;;;18.75;16.25;;;;;12.63;75.39;100432.09;5020137;28;46018;-57
2021/12/24 11:12:45;;;;;;;;;12.50;12.50;;;;;12.65;75.12;100424.06;5019995;28;45301;-57
2021/12/24 11:15:27;;;;;;;;;17.00;11.50;;;;;12.62;75.20;100416.34;5020188;28;45328;-57
2021/12/24 11:17:55;;;;;;;;;18.00;17.00;;;;;12.63;75.27;100403.00;5020389;28;45491;-56
2021/12/24 11:20:21;;;;;;;;;17.50;15.00;;;;;12.66;75.20;100397.53;5023223;28;45580;-57
2021/12/24 11:22:57;;;;;;;;;15.50;12.75;;;;;12.70;75.33;100388.41;5023387;28;45390;-56
2021/12/24 11:25:25;;;;;;;;;13.00;12.50;;;;;12.70;74.98;100391.03;5023445;28;45319;-57
2021/12/24 11:27:51;;;;;;;;;11.25;11.25;;;;;12.66;74.98;100381.66;5023564;28;45740;-56
2021/12/24 11:30:18;;;;;;;;;16.00;12.00;;;;;12.68;75.14;100386.84;5023130;28;45248;-56
2021/12/24 11:32:45;;;;;;;;;18.25;15.50;;;;;12.67;75.01;100370.13;5023224;28;45325;-56
2021/12/24 11:35:13;;;;;;;;;16.75;14.25;;;;;12.70;75.02;100369.91;5023078;28;45364;-56
2021/12/24 11:37:42;;;;;;;;;18.50;13.25;;;;;12.73;74.94;100371.50;5023482;28;45576;-57
2021/12/24 11:40:08;;;;;;;;;14.00;11.75;;;;;12.72;74.85;100367.16;5022965;28;46314;-56
2021/12/24 11:42:39;;;;;;;;;17.25;12.75;;;;;12.71;75.04;100374.22;5023122;28;45307;-56
2021/12/24 11:45:05;;;;;;;;;17.25;14.00;;;;;12.71;74.77;100378.66;5022939;28;45161;-55
2021/12/24 11:47:32;;;;;;;;;16.00;12.75;;;;;12.70;74.98;100383.09;5023161;28;45522;-56
2021/12/24 11:49:57;;;;;;;;;17.00;14.25;;;;;12.70;74.99;100387.56;5022638;28;45296;-55
2021/12/24 11:52:25;;;;;;;;;16.50;15.00;;;;;12.68;75.01;100382.38;5023142;28;45317;-56
2021/12/24 11:54:54;;;;;;;;;15.25;13.75;;;;;12.66;74.88;100386.09;5022810;28;45286;-56
2021/12/24 11:57:21;;;;;;;;;12.50;12.00;;;;;12.66;74.76;100381.66;5023163;28;45362;-56
2021/12/24 11:59:47;;;;;;;;;15.50;15.25;;;;;12.68;75.07;100381.56;5022663;28;46062;-55
2021/12/24 12:02:37;;;;;;;;;13.75;13.75;;;;;12.68;75.13;100376.25;5022933;28;45379;-56
2021/12/24 12:05:15;;;;;;;;;14.75;12.75;;;;;12.68;74.91;100373.63;5022717;28;45427;-56
2021/12/24 12:07:40;;;;;;;;;13.50;10.25;;;;;12.70;74.88;100384.91;5023121;28;45419;-56
2021/12/24 12:10:07;;;;;;;;;14.50;12.00;;;;;12.73;74.74;100382.06;5022650;28;45406;-56
2021/12/24 12:12:39;;;;;;;;;17.75;17.00;;;;;12.74;74.92;100375.81;5022666;28;45376;-57
2021/12/24 12:15:29;;;;;;;;;14.75;14.00;;;;;12.79;74.96;100374.50;5022710;28;45319;-56
2021/12/24 12:17:58;;;;;;;;;21.25;18.75;;;;;12.81;74.57;100369.13;5022482;28;45325;-56
2021/12/24 12:20:44;;;;;;;;;19.50;18.00;;;;;12.78;74.44;100371.97;5022187;28;45330;-56
2021/12/24 12:23:30;;;;;;;;;26.25;16.75;;;;;12.75;74.54;100367.78;5022385;28;45412;-56
2021/12/24 12:25:55;;;;;;;;;13.50;13.00;;;;;12.72;74.56;100375.09;5022414;28;45511;-56
2021/12/24 12:28:26;;;;;;;;;20.00;17.75;;;;;12.73;74.69;100374.13;5022645;28;45423;-57
2021/12/24 12:30:53;;;;;;;;;19.50;15.75;;;;;12.73;74.97;100374.13;5021073;28;45391;-56
2021/12/24 12:33:31;;;;;;;;;21.00;13.25;;;;;12.76;74.71;100379.19;5022310;28;45315;-55
2021/12/24 12:36:02;;;;;;;;;23.50;13.50;;;;;12.75;74.71;100372.22;5022189;28;45421;-55
2021/12/24 12:38:44;;;;;;;;;18.25;17.00;;;;;12.72;74.99;100370.66;5022307;28;45324;-56
2021/12/24 12:41:24;;;;;;;;;10.00;6.00;;;;;12.67;74.91;100367.50;5022094;28;45439;-56
2021/12/24 12:43:51;;;;;;;;;17.00;13.75;;;;;12.67;75.12;100356.09;5022152;28;45245;-56
2021/12/24 12:46:31;;;;;;;;;19.50;16.25;;;;;12.68;75.19;100355.97;5022176;28;45225;-56
2021/12/24 12:49:00;;;;;;;;;17.50;16.00;;;;;12.70;74.98;100348.75;5022144;28;45380;-57
2021/12/24 12:51:50;;;;;;;;;21.75;19.00;;;;;12.72;75.16;100348.66;5021510;28;46161;-57
2021/12/24 12:54:37;;;;;;;;;22.25;17.50;;;;;12.76;75.22;100355.38;5021946;28;45374;-57